createdAt,value
2023-05-03T00:01:46.504Z,99327.88
2023-05-03T00:04:14.878Z,99327.88
2023-05-03T00:06:43.847Z,99328.59
2023-05-03T00:09:10.770Z,99330.47
2023-05-03T00:11:37.764Z,99327.81
2023-05-03T00:14:04.528Z,99327.81
2023-05-03T00:16:31.246Z,99327.06
2023-05-03T00:18:58.079Z,99317.47
2023-05-03T00:21:24.894Z,99323.59
2023-05-03T00:23:51.637Z,99314.75
2023-05-03T00:26:18.398Z,99311.19
2023-05-03T00:28:45.548Z,99310.31
2023-05-03T00:31:12.245Z,99307.66
2023-05-03T00:33:39.880Z,99306.78
2023-05-03T00:36:10.781Z,99299.78
2023-05-03T00:38:38.065Z,99298.91
2023-05-03T00:41:05.041Z,99299.84
2023-05-03T00:43:34.374Z,99301.69
2023-05-03T00:46:15.227Z,99301.78
2023-05-03T00:48:43.966Z,99299.13
2023-05-03T00:51:14.332Z,99305.38
2023-05-03T00:53:42.616Z,99306.16
2023-05-03T00:56:09.393Z,99295.53
2023-05-03T00:58:40.508Z,99295.50
2023-05-03T01:01:08.653Z,99291.16
2023-05-03T01:03:41.703Z,99291.28
2023-05-03T01:06:21.779Z,99285.94
2023-05-03T01:09:00.358Z,99288.63
2023-05-03T01:11:36.808Z,99289.50
2023-05-03T01:14:20.731Z,99296.53
2023-05-03T01:16:51.773Z,99293.00
2023-05-03T01:19:40.271Z,99285.09
2023-05-03T01:22:17.789Z,99283.38
2023-05-03T01:24:55.661Z,99279.81
2023-05-03T01:27:23.912Z,99280.72
2023-05-03T01:29:51.406Z,99281.56
2023-05-03T01:32:26.796Z,99280.81
2023-05-03T01:35:15.898Z,99275.53
2023-05-03T01:37:43.169Z,99278.16
2023-05-03T01:40:11.749Z,99284.38
2023-05-03T01:42:39.280Z,99277.34
2023-05-03T01:45:07.257Z,99285.28
2023-05-03T01:47:34.047Z,99273.88
2023-05-03T01:50:01.058Z,99274.81
2023-05-03T01:52:28.061Z,99280.13
2023-05-03T01:54:54.770Z,99283.69
2023-05-03T01:57:21.377Z,99281.91
2023-05-03T01:59:48.159Z,99286.34
2023-05-03T02:02:15.146Z,99294.34
2023-05-03T02:04:41.951Z,99283.72
2023-05-03T02:07:09.287Z,99289.03
2023-05-03T02:09:36.206Z,99289.03
2023-05-03T02:12:02.916Z,99295.22
2023-05-03T02:14:29.650Z,99289.97
2023-05-03T02:16:56.333Z,99289.06
2023-05-03T02:19:23.056Z,99280.34
2023-05-03T02:21:49.714Z,99290.00
2023-05-03T02:24:16.613Z,99287.34
2023-05-03T02:26:43.255Z,99284.81
2023-05-03T02:29:10.365Z,99284.84
2023-05-03T02:31:37.100Z,99280.41
2023-05-03T02:34:04.417Z,99285.69
2023-05-03T02:36:31.125Z,99289.22
2023-05-03T02:39:00.724Z,99300.66
2023-05-03T02:41:28.612Z,99296.28
2023-05-03T02:43:55.260Z,99299.81
2023-05-03T02:46:23.429Z,99298.94
2023-05-03T02:48:50.193Z,99298.06
2023-05-03T02:51:16.845Z,99297.22
2023-05-03T02:53:43.558Z,99296.31
2023-05-03T02:56:10.325Z,99293.69
2023-05-03T02:58:37.050Z,99291.94
2023-05-03T03:01:04.821Z,99290.19
2023-05-03T03:03:31.655Z,99291.91
2023-05-03T03:05:58.446Z,99284.03
2023-05-03T03:08:25.314Z,99291.09
2023-05-03T03:10:52.634Z,99281.44
2023-05-03T03:13:19.436Z,99276.16
2023-05-03T03:15:46.365Z,99277.94
2023-05-03T03:18:13.201Z,99274.41
2023-05-03T03:20:39.891Z,99270.03
2023-05-03T03:23:07.169Z,99269.16
2023-05-03T03:25:33.982Z,99274.44
2023-05-03T03:28:00.769Z,99273.56
2023-05-03T03:30:28.235Z,99278.88
2023-05-03T03:33:11.521Z,99272.69
2023-05-03T03:35:41.249Z,99283.25
2023-05-03T03:38:08.699Z,99282.38
2023-05-03T03:40:39.906Z,99290.28
2023-05-03T03:43:06.634Z,99294.69
2023-05-03T03:45:33.398Z,99292.06
2023-05-03T03:48:00.715Z,99281.50
2023-05-03T03:50:27.679Z,99285.94
2023-05-03T03:52:54.301Z,99283.25
2023-05-03T03:55:21.073Z,99279.75
2023-05-03T03:57:49.656Z,99277.13
2023-05-03T04:00:16.755Z,99283.28
2023-05-03T04:02:49.665Z,99290.31
2023-05-03T04:05:18.373Z,99282.41
2023-05-03T04:07:46.095Z,99286.81
2023-05-03T04:10:14.586Z,99277.13
2023-05-03T04:12:41.524Z,99278.91
2023-05-03T04:15:08.966Z,99267.44
2023-05-03T04:17:37.458Z,99272.72
2023-05-03T04:20:10.824Z,99263.91
2023-05-03T04:22:40.389Z,99267.44
2023-05-03T04:25:17.103Z,99269.22
2023-05-03T04:27:48.752Z,99267.44
2023-05-03T04:30:17.482Z,99265.69
2023-05-03T04:32:48.121Z,99256.03
2023-05-03T04:35:15.679Z,99263.94
2023-05-03T04:37:46.762Z,99258.63
2023-05-03T04:40:19.622Z,99260.38
2023-05-03T04:42:52.027Z,99256.00
2023-05-03T04:45:20.763Z,99253.38
2023-05-03T04:47:48.220Z,99255.06
2023-05-03T04:50:15.138Z,99255.97
2023-05-03T04:52:44.645Z,99259.47
2023-05-03T04:55:12.496Z,99256.84
2023-05-03T04:57:39.130Z,99248.88
2023-05-03T05:00:11.826Z,99246.16
2023-05-03T05:02:43.715Z,99245.22
2023-05-03T05:05:11.341Z,99235.50
2023-05-03T05:07:38.100Z,99239.78
2023-05-03T05:10:05.635Z,99238.88
2023-05-03T05:12:32.633Z,99228.19
2023-05-03T05:15:02.467Z,99218.31
2023-05-03T05:17:29.307Z,99230.47
2023-05-03T05:19:56.326Z,99225.75
2023-05-03T05:22:22.933Z,99234.16
2023-05-03T05:24:54.975Z,99224.97
2023-05-03T05:27:23.790Z,99228.13
2023-05-03T05:29:52.533Z,99238.34
2023-05-03T05:32:20.042Z,99227.06
2023-05-03T05:34:52.870Z,99230.63
2023-05-03T05:37:25.042Z,99228.28
2023-05-03T05:39:53.774Z,99244.38
2023-05-03T05:42:22.598Z,99242.84
2023-05-03T05:44:50.035Z,99245.25
2023-05-03T05:47:16.951Z,99248.13
2023-05-03T05:49:45.208Z,99251.44
2023-05-03T05:52:12.420Z,99262.47
2023-05-03T05:54:39.808Z,99258.47
2023-05-03T05:57:06.860Z,99260.84
2023-05-03T05:59:34.409Z,99260.22
2023-05-03T06:02:01.195Z,99256.53
2023-05-03T06:04:28.887Z,99258.78
2023-05-03T06:06:56.767Z,99253.81
2023-05-03T06:09:24.984Z,99251.59
2023-05-03T06:11:55.377Z,99252.78
2023-05-03T06:14:22.038Z,99256.22
2023-05-03T06:16:50.744Z,99249.78
2023-05-03T06:19:17.567Z,99257.19
2023-05-03T06:21:44.225Z,99254.97
2023-05-03T06:24:10.933Z,99250.66
2023-05-03T06:26:38.583Z,99249.59
2023-05-03T06:29:05.849Z,99246.78
2023-05-03T06:31:32.531Z,99247.41
2023-05-03T06:33:59.582Z,99241.53
2023-05-03T06:36:27.652Z,99247.56
2023-05-03T06:38:55.825Z,99247.34
2023-05-03T06:41:22.444Z,99252.78
2023-05-03T06:43:49.118Z,99252.78
2023-05-03T06:46:18.262Z,99253.50
2023-05-03T06:48:46.447Z,99250.59
2023-05-03T06:51:13.157Z,99244.09
2023-05-03T06:53:39.752Z,99256.63
2023-05-03T06:56:06.769Z,99252.34
2023-05-03T06:58:33.395Z,99250.06
2023-05-03T07:01:00.065Z,99240.66
2023-05-03T07:03:26.836Z,99238.84
2023-05-03T07:05:53.629Z,99242.88
2023-05-03T07:08:20.292Z,99247.22
2023-05-03T07:10:46.899Z,99237.78
2023-05-03T07:13:14.269Z,99239.50
2023-05-03T07:15:41.108Z,99241.31
2023-05-03T07:18:08.311Z,99243.69
2023-05-03T07:20:34.988Z,99233.13
2023-05-03T07:23:01.785Z,99242.03
2023-05-03T07:25:28.539Z,99246.00
2023-05-03T07:27:55.277Z,99237.03
2023-05-03T07:30:22.305Z,99235.91
2023-05-03T07:32:50.637Z,99241.13
2023-05-03T07:35:17.314Z,99236.56
2023-05-03T07:37:44.765Z,99230.38
2023-05-03T07:40:12.291Z,99231.03
2023-05-03T07:42:38.998Z,99234.03
2023-05-03T07:45:06.435Z,99234.56
2023-05-03T07:47:35.317Z,99231.69
2023-05-03T07:50:02.288Z,99240.59
2023-05-03T07:52:39.401Z,99227.25
2023-05-03T07:55:07.221Z,99213.06
2023-05-03T07:57:33.874Z,99220.78
2023-05-03T08:00:00.905Z,99224.75
2023-05-03T08:02:28.253Z,99214.09
2023-05-03T08:04:55.272Z,99212.66
2023-05-03T08:07:22.122Z,99224.97
2023-05-03T08:09:49.400Z,99217.34
2023-05-03T08:12:16.043Z,99218.06
2023-05-03T08:14:42.868Z,99216.69
2023-05-03T08:17:09.666Z,99218.50
2023-05-03T08:19:36.582Z,99216.22
2023-05-03T08:22:03.405Z,99210.22
2023-05-03T08:24:30.305Z,99205.97
2023-05-03T08:26:56.968Z,99200.13
2023-05-03T08:29:24.083Z,99193.63
2023-05-03T08:31:51.856Z,99191.91
2023-05-03T08:34:18.683Z,99192.81
2023-05-03T08:36:45.509Z,99189.16
2023-05-03T08:39:12.145Z,99183.56
2023-05-03T08:41:39.634Z,99188.44
2023-05-03T08:44:08.380Z,99176.69
2023-05-03T08:46:37.223Z,99174.63
2023-05-03T08:49:06.673Z,99170.22
2023-05-03T08:51:34.269Z,99174.50
2023-05-03T08:54:01.086Z,99175.22
2023-05-03T08:56:34.601Z,99172.13
2023-05-03T08:59:07.452Z,99178.91
2023-05-03T09:01:37.192Z,99177.59
2023-05-03T09:04:04.641Z,99181.50
2023-05-03T09:06:33.171Z,99170.66
2023-05-03T09:09:00.851Z,99162.19
2023-05-03T09:11:30.273Z,99163.75
2023-05-03T09:14:12.222Z,99163.41
2023-05-03T09:16:40.727Z,99168.63
2023-05-03T09:19:11.518Z,99170.09
2023-05-03T09:21:39.369Z,99167.59
2023-05-03T09:24:21.080Z,99160.88
2023-05-03T09:26:51.918Z,99160.84
2023-05-03T09:29:34.510Z,99151.31
2023-05-03T09:32:05.447Z,99166.88
2023-05-03T09:34:33.382Z,99154.69
2023-05-03T09:37:00.051Z,99158.59
2023-05-03T09:39:27.514Z,99156.13
2023-05-03T09:41:54.400Z,99139.59
2023-05-03T09:44:41.270Z,99144.47
2023-05-03T09:47:08.388Z,99139.28
2023-05-03T09:49:39.376Z,99146.00
2023-05-03T09:52:07.779Z,99143.91
2023-05-03T09:54:38.125Z,99150.34
2023-05-03T09:57:06.519Z,99147.47
2023-05-03T09:59:38.779Z,99139.34
2023-05-03T10:02:07.495Z,99141.81
2023-05-03T10:04:47.526Z,99143.47
2023-05-03T10:07:18.624Z,99129.69
2023-05-03T10:09:47.847Z,99130.56
2023-05-03T10:12:17.460Z,99134.63
2023-05-03T10:14:48.680Z,99131.06
2023-05-03T10:17:46.096Z,99123.59
2023-05-03T10:20:27.173Z,99141.06
2023-05-03T10:23:11.950Z,99133.63
2023-05-03T10:25:41.051Z,99139.97
2023-05-03T10:28:09.490Z,99132.41
2023-05-03T10:30:36.258Z,99132.63
2023-05-03T10:33:17.783Z,99127.16
2023-05-03T10:35:54.404Z,99118.50
2023-05-03T10:38:23.004Z,99115.19
2023-05-03T10:40:50.585Z,99119.38
2023-05-03T10:43:29.554Z,99108.63
2023-05-03T10:45:57.376Z,99105.75
2023-05-03T10:48:24.396Z,99099.41
2023-05-03T10:50:52.625Z,99084.44
2023-05-03T10:53:31.920Z,99085.97
2023-05-03T10:56:10.140Z,99096.97
2023-05-03T10:58:38.093Z,99097.59
2023-05-03T11:01:06.824Z,99103.88
2023-05-03T11:03:55.979Z,99102.06
2023-05-03T11:06:37.134Z,99102.38
2023-05-03T11:09:06.624Z,99086.97
2023-05-03T11:11:35.181Z,99081.28
2023-05-03T11:14:01.966Z,99089.38
2023-05-03T11:16:32.297Z,99096.63
2023-05-03T11:19:00.323Z,99086.59
2023-05-03T11:21:27.649Z,99078.69
2023-05-03T11:23:54.408Z,99068.88
2023-05-03T11:26:25.911Z,99066.31
2023-05-03T11:28:54.044Z,99073.97
2023-05-03T11:31:21.621Z,99065.66
2023-05-03T11:33:49.464Z,99057.69
2023-05-03T11:36:16.222Z,99057.13
2023-05-03T11:38:42.941Z,99047.09
2023-05-03T11:41:19.027Z,99043.19
2023-05-03T11:43:47.810Z,99052.59
2023-05-03T11:46:26.492Z,99050.50
2023-05-03T11:48:53.452Z,99049.25
2023-05-03T11:51:23.870Z,99051.56
2023-05-03T11:53:51.391Z,99048.25
2023-05-03T11:56:20.296Z,99058.22
2023-05-03T11:58:58.354Z,99058.81
2023-05-03T12:01:27.143Z,99054.47
2023-05-03T12:03:58.772Z,99050.97
2023-05-03T12:06:32.195Z,99047.47
2023-05-03T12:09:03.493Z,99041.84
2023-05-03T12:11:32.911Z,99053.38
2023-05-03T12:14:03.133Z,99055.97
2023-05-03T12:16:50.989Z,99052.28
2023-05-03T12:19:26.071Z,99051.03
2023-05-03T12:22:04.490Z,99046.81
2023-05-03T12:24:39.879Z,99057.00
2023-05-03T12:27:08.624Z,99052.41
2023-05-03T12:29:35.848Z,99050.72
2023-05-03T12:32:03.721Z,99049.97
2023-05-03T12:34:35.682Z,99037.53
2023-05-03T12:37:05.614Z,99043.72
2023-05-03T12:39:34.095Z,99038.63
2023-05-03T12:44:35.039Z,99032.03
2023-05-03T12:47:02.912Z,99033.66
2023-05-03T12:49:30.290Z,99023.38
2023-05-03T12:52:24.102Z,99023.47
2023-05-03T12:55:02.709Z,99023.59
2023-05-03T12:57:31.258Z,99026.44
2023-05-03T13:00:03.344Z,99027.28
2023-05-03T13:05:09.722Z,99025.13
2023-05-03T13:07:42.921Z,99022.59
2023-05-03T13:12:40.714Z,99014.13
2023-05-03T13:15:08.284Z,99015.94
2023-05-03T13:17:35.216Z,99009.59
2023-05-03T13:20:01.942Z,99006.16
2023-05-03T13:22:30.098Z,99004.63
2023-05-03T13:24:56.778Z,98992.69
2023-05-03T13:27:23.487Z,98992.19
2023-05-03T13:29:50.217Z,98995.13
2023-05-03T13:32:17.227Z,98990.84
2023-05-03T13:34:44.293Z,98983.69
2023-05-03T13:37:11.790Z,98979.00
2023-05-03T13:39:38.650Z,98976.53
2023-05-03T13:42:06.276Z,98976.47
2023-05-03T13:44:32.977Z,98988.09
2023-05-03T13:46:59.609Z,98992.44
2023-05-03T13:49:26.346Z,98981.72
2023-05-03T13:51:53.015Z,98985.50
2023-05-03T13:54:20.193Z,98972.78
2023-05-03T13:56:47.286Z,98963.94
2023-05-03T13:59:14.112Z,98960.88
2023-05-03T14:01:42.998Z,98954.66
2023-05-03T14:04:10.223Z,98957.66
2023-05-03T14:06:39.412Z,98950.06
2023-05-03T14:09:07.842Z,98942.19
2023-05-03T14:11:34.633Z,98947.16
2023-05-03T14:14:01.699Z,98929.19
2023-05-03T14:18:58.347Z,98939.13
2023-05-03T14:21:25.178Z,98932.75
2023-05-03T14:23:52.971Z,98934.16
2023-05-03T14:26:20.484Z,98936.28
2023-05-03T14:28:47.173Z,98939.56
2023-05-03T14:31:13.875Z,98930.09
2023-05-03T14:33:40.537Z,98930.66
2023-05-03T14:36:08.719Z,98925.63
2023-05-03T14:38:37.141Z,98926.91
2023-05-03T14:41:04.086Z,98920.22
2023-05-03T14:43:31.408Z,98915.34
2023-05-03T14:45:58.000Z,98919.09
2023-05-03T14:48:24.812Z,98912.69
2023-05-03T14:50:51.612Z,98919.19
2023-05-03T14:53:18.279Z,98915.59
2023-05-03T14:55:46.039Z,98914.34
2023-05-03T14:58:16.101Z,98913.38
2023-05-03T15:00:43.370Z,98917.81
2023-05-03T15:03:12.041Z,98906.06
2023-05-03T15:05:45.355Z,98909.63
2023-05-03T15:08:15.159Z,98909.34
2023-05-03T15:10:44.256Z,98904.91
2023-05-03T15:13:12.258Z,98912.72
2023-05-03T15:15:40.509Z,98907.72
2023-05-03T15:18:08.594Z,98909.06
2023-05-03T15:20:35.984Z,98904.72
2023-05-03T15:23:04.180Z,98900.50
2023-05-03T15:25:31.485Z,98899.34
2023-05-03T15:27:59.997Z,98900.41
2023-05-03T15:30:28.846Z,98888.72
2023-05-03T15:32:55.663Z,98893.38
2023-05-03T15:35:22.472Z,98893.59
2023-05-03T15:37:49.532Z,98894.09
2023-05-03T15:40:16.675Z,98894.25
2023-05-03T15:42:43.744Z,98890.22
2023-05-03T15:45:10.803Z,98883.84
2023-05-03T15:47:37.494Z,98887.84
2023-05-03T15:50:06.377Z,98883.13
2023-05-03T15:52:34.736Z,98890.03
2023-05-03T15:55:01.461Z,98885.19
2023-05-03T15:57:29.645Z,98883.41
2023-05-03T15:59:57.063Z,98879.00
2023-05-03T16:02:23.943Z,98882.91
2023-05-03T16:04:50.930Z,98879.63
2023-05-03T16:07:17.935Z,98884.59
2023-05-03T16:09:44.755Z,98885.47
2023-05-03T16:12:11.737Z,98885.88
2023-05-03T16:14:38.422Z,98878.66
2023-05-03T16:17:05.147Z,98886.66
2023-05-03T16:19:32.117Z,98879.59
2023-05-03T16:21:58.984Z,98884.38
2023-05-03T16:24:25.866Z,98876.91
2023-05-03T16:26:52.975Z,98874.53
2023-05-03T16:29:19.990Z,98875.25
2023-05-03T16:31:46.958Z,98873.72
2023-05-03T16:34:14.217Z,98880.09
2023-05-03T16:36:43.087Z,98876.34
2023-05-03T16:39:11.669Z,98882.84
2023-05-03T16:41:38.907Z,98876.91
2023-05-03T16:44:07.129Z,98885.28
2023-05-03T16:46:39.569Z,98880.75
2023-05-03T16:49:06.388Z,98888.16
2023-05-03T16:51:33.749Z,98884.03
2023-05-03T16:54:03.789Z,98882.63
2023-05-03T16:56:31.317Z,98879.25
2023-05-03T16:58:59.200Z,98882.94
2023-05-03T17:01:26.401Z,98874.84
2023-05-03T17:03:53.501Z,98876.28
2023-05-03T17:06:20.505Z,98876.44
2023-05-03T17:08:47.269Z,98876.66
2023-05-03T17:11:14.816Z,98873.88
2023-05-03T17:13:42.037Z,98879.88
2023-05-03T17:16:10.780Z,98879.00
2023-05-03T17:18:38.796Z,98874.84
2023-05-03T17:21:06.641Z,98882.22
2023-05-03T17:23:35.923Z,98883.47
2023-05-03T17:26:07.012Z,98876.88
2023-05-03T17:28:33.967Z,98882.09
2023-05-03T17:31:02.309Z,98875.69
2023-05-03T17:33:29.221Z,98890.38
2023-05-03T17:35:55.897Z,98886.59
2023-05-03T17:38:23.478Z,98889.19
2023-05-03T17:40:50.681Z,98899.00
2023-05-03T17:43:17.798Z,98898.03
2023-05-03T17:45:47.358Z,98898.34
2023-05-03T17:48:14.520Z,98904.09
2023-05-03T17:50:43.004Z,98901.97
2023-05-03T17:53:09.790Z,98906.94
2023-05-03T17:55:38.308Z,98898.34
2023-05-03T17:58:06.177Z,98901.19
2023-05-03T18:00:33.855Z,98909.13
2023-05-03T18:03:01.286Z,98902.75
2023-05-03T18:05:28.382Z,98909.06
2023-05-03T18:07:55.093Z,98916.25
2023-05-03T18:10:22.329Z,98911.38
2023-05-03T18:12:49.280Z,98921.06
2023-05-03T18:15:16.312Z,98922.28
2023-05-03T18:17:43.532Z,98923.69
2023-05-03T18:20:10.860Z,98911.94
2023-05-03T18:22:37.853Z,98926.56
2023-05-03T18:25:07.527Z,98918.16
2023-05-03T18:27:37.277Z,98919.03
2023-05-03T18:30:06.746Z,98920.63
2023-05-03T18:32:34.805Z,98918.75
2023-05-03T18:35:02.440Z,98919.06
2023-05-03T18:37:29.711Z,98919.47
2023-05-03T18:39:56.433Z,98916.78
2023-05-03T18:42:23.170Z,98914.78
2023-05-03T18:44:49.860Z,98925.13
2023-05-03T18:47:20.640Z,98928.16
2023-05-03T18:49:52.713Z,98936.63
2023-05-03T18:52:20.455Z,98929.09
2023-05-03T18:54:47.469Z,98924.16
2023-05-03T18:57:14.199Z,98916.78
2023-05-03T18:59:52.583Z,98928.97
2023-05-03T19:02:25.330Z,98930.78
2023-05-03T19:04:52.658Z,98927.06
2023-05-03T19:07:19.510Z,98918.59
2023-05-03T19:09:46.206Z,98927.97
2023-05-03T19:12:13.506Z,98930.53
2023-05-03T19:14:42.920Z,98928.91
2023-05-03T19:17:09.836Z,98929.13
2023-05-03T19:19:36.818Z,98934.06
2023-05-03T19:22:03.714Z,98936.75
2023-05-03T19:24:30.493Z,98932.44
2023-05-03T19:26:57.298Z,98933.28
2023-05-03T19:29:23.953Z,98928.56
2023-05-03T19:31:50.694Z,98937.53
2023-05-03T19:34:17.685Z,98939.41
2023-05-03T19:36:44.276Z,98939.84
2023-05-03T19:39:11.395Z,98935.81
2023-05-03T19:41:38.732Z,98946.44
2023-05-03T19:44:06.025Z,98939.84
2023-05-03T19:46:33.778Z,98949.00
2023-05-03T19:49:01.345Z,98939.38
2023-05-03T19:51:28.184Z,98943.72
2023-05-03T19:53:55.258Z,98941.41
2023-05-03T19:56:22.170Z,98940.44
2023-05-03T19:58:50.688Z,98944.84
2023-05-03T20:01:17.672Z,98947.38
2023-05-03T20:03:44.620Z,98943.31
2023-05-03T20:06:11.436Z,98949.78
2023-05-03T20:08:38.033Z,98943.75
2023-05-03T20:11:04.747Z,98943.31
2023-05-03T20:13:31.683Z,98936.19
2023-05-03T20:15:58.391Z,98946.50
2023-05-03T20:18:25.187Z,98950.09
2023-05-03T20:20:51.784Z,98940.00
2023-05-03T20:23:18.492Z,98946.22
2023-05-03T20:25:45.147Z,98948.41
2023-05-03T20:28:12.908Z,98944.28
2023-05-03T20:30:39.568Z,98940.66
2023-05-03T20:33:06.304Z,98936.53
2023-05-03T20:35:32.984Z,98938.56
2023-05-03T20:37:59.566Z,98933.00
2023-05-03T20:40:26.248Z,98934.38
2023-05-03T20:42:52.872Z,98927.34
2023-05-03T20:45:19.585Z,98920.94
2023-05-03T20:47:46.316Z,98923.81
2023-05-03T20:50:13.029Z,98919.81
2023-05-03T20:52:39.711Z,98920.41
2023-05-03T20:55:07.199Z,98923.94
2023-05-03T20:57:33.975Z,98919.63
2023-05-03T21:00:02.257Z,98920.28
2023-05-03T21:02:29.156Z,98918.00
2023-05-03T21:04:55.855Z,98917.84
2023-05-03T21:07:22.575Z,98925.00
2023-05-03T21:09:49.303Z,98918.78
2023-05-03T21:12:16.012Z,98915.38
2023-05-03T21:14:42.669Z,98912.66
2023-05-03T21:17:12.095Z,98917.06
2023-05-03T21:19:39.611Z,98914.31
2023-05-03T21:22:09.533Z,98909.34
2023-05-03T21:24:36.351Z,98918.47
2023-05-03T21:27:03.404Z,98913.44
2023-05-03T21:29:30.006Z,98909.75
2023-05-03T21:31:56.971Z,98913.16
2023-05-03T21:34:23.666Z,98913.47
2023-05-03T21:36:50.554Z,98905.41
2023-05-03T21:39:17.272Z,98909.25
2023-05-03T21:41:43.939Z,98907.72
2023-05-03T21:44:10.631Z,98903.94
2023-05-03T21:46:37.378Z,98902.63
2023-05-03T21:49:04.016Z,98906.59
2023-05-03T21:51:31.185Z,98900.22
2023-05-03T21:53:57.855Z,98895.66
2023-05-03T21:56:24.531Z,98891.91
2023-05-03T21:58:51.247Z,98885.13
2023-05-03T22:01:19.948Z,98882.28
2023-05-03T22:03:48.611Z,98880.31
2023-05-03T22:06:18.350Z,98872.66
2023-05-03T22:08:45.049Z,98875.09
2023-05-03T22:11:12.471Z,98863.81
2023-05-03T22:13:49.622Z,98869.47
2023-05-03T22:16:18.329Z,98873.13
2023-05-03T22:18:45.065Z,98869.66
2023-05-03T22:21:11.721Z,98870.03
2023-05-03T22:23:38.479Z,98873.50
2023-05-03T22:26:05.123Z,98868.50
2023-05-03T22:28:31.792Z,98867.34
2023-05-03T22:30:58.511Z,98866.63
2023-05-03T22:33:25.331Z,98866.72
2023-05-03T22:35:52.301Z,98856.81
2023-05-03T22:38:20.040Z,98854.50
2023-05-03T22:40:46.931Z,98864.19
2023-05-03T22:43:13.601Z,98867.63
2023-05-03T22:45:40.287Z,98865.59
2023-05-03T22:48:07.065Z,98858.16
2023-05-03T22:50:33.710Z,98858.16
2023-05-03T22:53:00.400Z,98867.13
2023-05-03T22:55:27.066Z,98856.53
2023-05-03T22:57:53.816Z,98861.22
2023-05-03T23:00:21.619Z,98864.09
2023-05-03T23:05:15.718Z,98851.50
2023-05-03T23:07:43.194Z,98855.91
2023-05-03T23:10:10.176Z,98856.47
2023-05-03T23:12:37.134Z,98859.28
2023-05-03T23:15:04.242Z,98859.41
2023-05-03T23:17:31.503Z,98852.63
2023-05-03T23:19:58.273Z,98854.00
2023-05-03T23:22:24.885Z,98859.31
2023-05-03T23:24:51.521Z,98840.53
2023-05-03T23:27:18.166Z,98846.03
2023-05-03T23:29:47.183Z,98848.09
2023-05-03T23:32:14.402Z,98849.13
2023-05-03T23:34:41.869Z,98852.00
2023-05-03T23:37:08.505Z,98849.56
2023-05-03T23:39:35.263Z,98839.72
2023-05-03T23:42:02.104Z,98851.72
2023-05-03T23:44:38.679Z,98838.78
2023-05-03T23:47:15.418Z,98835.00
2023-05-03T23:49:42.023Z,98845.16
2023-05-03T23:52:09.734Z,98840.81
2023-05-03T23:54:36.495Z,98836.44
2023-05-03T23:57:03.145Z,98833.19
2023-05-03T23:59:29.852Z,98833.78
